sensor_id;sensor_type;location;lat;lon;timestamp;temperature;humidity
17452;DHT22;8843;48.838;9.324;2023-02-01T00:01:48;4.90;99.90
17452;DHT22;8843;48.838;9.324;2023-02-01T00:04:15;4.90;99.90
17452;DHT22;8843;48.838;9.324;2023-02-01T00:06:42;4.90;99.90
17452;DHT22;8843;48.838;9.324;2023-02-01T00:09:09;4.90;99.90
17452;DHT22;8843;48.838;9.324;2023-02-01T00:11:36;4.90;99.90
17452;DHT22;8843;48.838;9.324;2023-02-01T00:14:04;4.90;99.90
17452;DHT22;8843;48.838;9.324;2023-02-01T00:16:31;4.90;99.90
17452;DHT22;8843;48.838;9.324;2023-02-01T00:19:00;4.90;99.90
17452;DHT22;8843;48.838;9.324;2023-02-01T00:21:27;4.90;99.90
17452;DHT22;8843;48.838;9.324;2023-02-01T00:23:54;4.90;99.90
17452;DHT22;8843;48.838;9.324;2023-02-01T00:26:26;4.90;99.90
17452;DHT22;8843;48.838;9.324;2023-02-01T00:28:54;4.90;99.90
17452;DHT22;8843;48.838;9.324;2023-02-01T00:31:22;4.90;99.90
17452;DHT22;8843;48.838;9.324;2023-02-01T00:33:49;4.90;99.90
17452;DHT22;8843;48.838;9.324;2023-02-01T00:36:17;4.90;99.90
17452;DHT22;8843;48.838;9.324;2023-02-01T00:38:44;4.90;99.90
17452;DHT22;8843;48.838;9.324;2023-02-01T00:41:13;4.90;99.90
17452;DHT22;8843;48.838;9.324;2023-02-01T00:43:40;4.80;99.90
17452;DHT22;8843;48.838;9.324;2023-02-01T00:46:08;4.80;99.90
17452;DHT22;8843;48.838;9.324;2023-02-01T00:48:36;4.90;99.90
17452;DHT22;8843;48.838;9.324;2023-02-01T00:51:05;4.90;99.90
17452;DHT22;8843;48.838;9.324;2023-02-01T00:53:33;4.80;99.90
17452;DHT22;8843;48.838;9.324;2023-02-01T00:56:01;4.90;99.90
17452;DHT22;8843;48.838;9.324;2023-02-01T00:58:28;4.90;99.90
17452;DHT22;8843;48.838;9.324;2023-02-01T01:01:02;4.90;99.90
17452;DHT22;8843;48.838;9.324;2023-02-01T01:03:29;4.80;99.90
17452;DHT22;8843;48.838;9.324;2023-02-01T01:06:01;4.90;99.90
17452;DHT22;8843;48.838;9.324;2023-02-01T01:08:28;4.90;99.90
17452;DHT22;8843;48.838;9.324;2023-02-01T01:10:55;4.90;99.90
17452;DHT22;8843;48.838;9.324;2023-02-01T01:13:22;4.80;99.90
17452;DHT22;8843;48.838;9.324;2023-02-01T01:15:49;4.80;99.90
17452;DHT22;8843;48.838;9.324;2023-02-01T01:18:16;4.80;99.90
17452;DHT22;8843;48.838;9.324;2023-02-01T01:20:43;4.90;99.90
17452;DHT22;8843;48.838;9.324;2023-02-01T01:23:11;4.80;99.90
17452;DHT22;8843;48.838;9.324;2023-02-01T01:25:38;4.90;99.90
17452;DHT22;8843;48.838;9.324;2023-02-01T01:28:06;4.80;99.90
17452;DHT22;8843;48.838;9.324;2023-02-01T01:30:33;4.80;99.90
17452;DHT22;8843;48.838;9.324;2023-02-01T01:33:00;4.90;99.90
17452;DHT22;8843;48.838;9.324;2023-02-01T01:35:29;4.80;99.90
17452;DHT22;8843;48.838;9.324;2023-02-01T01:37:56;4.80;99.90
17452;DHT22;8843;48.838;9.324;2023-02-01T01:40:25;4.80;99.90
17452;DHT22;8843;48.838;9.324;2023-02-01T01:42:52;4.80;99.90
17452;DHT22;8843;48.838;9.324;2023-02-01T01:45:24;4.80;99.90
17452;DHT22;8843;48.838;9.324;2023-02-01T01:47:53;4.80;99.90
17452;DHT22;8843;48.838;9.324;2023-02-01T01:50:23;4.80;99.90
17452;DHT22;8843;48.838;9.324;2023-02-01T01:52:52;4.80;99.90
17452;DHT22;8843;48.838;9.324;2023-02-01T01:55:24;4.90;99.90
17452;DHT22;8843;48.838;9.324;2023-02-01T01:57:57;4.80;99.90
17452;DHT22;8843;48.838;9.324;2023-02-01T02:00:25;4.80;99.90
17452;DHT22;8843;48.838;9.324;2023-02-01T02:02:56;4.80;99.90
17452;DHT22;8843;48.838;9.324;2023-02-01T02:05:23;4.80;99.90
17452;DHT22;8843;48.838;9.324;2023-02-01T02:07:53;4.80;99.90
17452;DHT22;8843;48.838;9.324;2023-02-01T02:10:24;4.80;99.90
17452;DHT22;8843;48.838;9.324;2023-02-01T02:13:12;4.80;99.90
17452;DHT22;8843;48.838;9.324;2023-02-01T02:15:45;4.80;99.90
17452;DHT22;8843;48.838;9.324;2023-02-01T02:18:18;4.90;99.90
17452;DHT22;8843;48.838;9.324;2023-02-01T02:20:59;4.90;99.90
17452;DHT22;8843;48.838;9.324;2023-02-01T02:23:54;4.90;99.90
17452;DHT22;8843;48.838;9.324;2023-02-01T02:29:45;4.90;99.90
17452;DHT22;8843;48.838;9.324;2023-02-01T02:35:14;5.00;99.90
17452;DHT22;8843;48.838;9.324;2023-02-01T02:37:50;5.00;99.90
17452;DHT22;8843;48.838;9.324;2023-02-01T02:40:28;4.90;99.90
17452;DHT22;8843;48.838;9.324;2023-02-01T02:43:04;5.00;99.90
17452;DHT22;8843;48.838;9.324;2023-02-01T02:45:54;4.90;99.90
17452;DHT22;8843;48.838;9.324;2023-02-01T02:48:44;4.90;99.90
17452;DHT22;8843;48.838;9.324;2023-02-01T02:51:16;5.00;99.90
17452;DHT22;8843;48.838;9.324;2023-02-01T02:54:07;5.00;99.90
17452;DHT22;8843;48.838;9.324;2023-02-01T02:56:53;5.00;99.90
17452;DHT22;8843;48.838;9.324;2023-02-01T02:59:40;4.90;99.90
17452;DHT22;8843;48.838;9.324;2023-02-01T03:02:27;4.90;99.90
17452;DHT22;8843;48.838;9.324;2023-02-01T03:05:11;4.90;99.90
17452;DHT22;8843;48.838;9.324;2023-02-01T03:08:04;5.00;99.90
17452;DHT22;8843;48.838;9.324;2023-02-01T03:10:43;5.00;99.90
17452;DHT22;8843;48.838;9.324;2023-02-01T03:13:15;5.00;99.90
17452;DHT22;8843;48.838;9.324;2023-02-01T03:15:50;5.00;99.90
17452;DHT22;8843;48.838;9.324;2023-02-01T03:18:22;5.00;99.90
17452;DHT22;8843;48.838;9.324;2023-02-01T03:20:52;5.00;99.90
17452;DHT22;8843;48.838;9.324;2023-02-01T03:23:23;5.00;99.90
17452;DHT22;8843;48.838;9.324;2023-02-01T03:25:53;4.90;99.90
17452;DHT22;8843;48.838;9.324;2023-02-01T03:28:23;5.00;99.90
17452;DHT22;8843;48.838;9.324;2023-02-01T03:30:51;5.00;99.90
17452;DHT22;8843;48.838;9.324;2023-02-01T03:33:22;5.00;99.90
17452;DHT22;8843;48.838;9.324;2023-02-01T03:35:55;5.00;99.90
17452;DHT22;8843;48.838;9.324;2023-02-01T03:38:28;5.00;99.90
17452;DHT22;8843;48.838;9.324;2023-02-01T03:41:00;5.00;99.90
17452;DHT22;8843;48.838;9.324;2023-02-01T03:43:32;4.90;99.90
17452;DHT22;8843;48.838;9.324;2023-02-01T03:46:04;4.90;99.90
17452;DHT22;8843;48.838;9.324;2023-02-01T03:48:33;4.90;99.90
17452;DHT22;8843;48.838;9.324;2023-02-01T03:51:04;4.90;99.90
17452;DHT22;8843;48.838;9.324;2023-02-01T03:53:34;5.00;99.90
17452;DHT22;8843;48.838;9.324;2023-02-01T03:56:03;4.90;99.90
17452;DHT22;8843;48.838;9.324;2023-02-01T03:58:30;5.00;99.90
17452;DHT22;8843;48.838;9.324;2023-02-01T04:00:59;4.90;99.90
17452;DHT22;8843;48.838;9.324;2023-02-01T04:03:27;4.90;99.90
17452;DHT22;8843;48.838;9.324;2023-02-01T04:05:55;4.90;99.90
17452;DHT22;8843;48.838;9.324;2023-02-01T04:08:22;4.90;99.90
17452;DHT22;8843;48.838;9.324;2023-02-01T04:10:51;4.90;99.90
17452;DHT22;8843;48.838;9.324;2023-02-01T04:13:17;4.90;99.90
17452;DHT22;8843;48.838;9.324;2023-02-01T04:15:44;5.00;99.90
17452;DHT22;8843;48.838;9.324;2023-02-01T04:18:15;5.00;99.90
17452;DHT22;8843;48.838;9.324;2023-02-01T04:20:43;5.00;99.90
17452;DHT22;8843;48.838;9.324;2023-02-01T04:23:10;5.00;99.90
17452;DHT22;8843;48.838;9.324;2023-02-01T04:25:37;5.00;99.90
17452;DHT22;8843;48.838;9.324;2023-02-01T04:28:05;4.90;99.90
17452;DHT22;8843;48.838;9.324;2023-02-01T04:30:33;4.90;99.90
17452;DHT22;8843;48.838;9.324;2023-02-01T04:33:00;4.90;99.90
17452;DHT22;8843;48.838;9.324;2023-02-01T04:35:29;4.90;99.90
17452;DHT22;8843;48.838;9.324;2023-02-01T04:37:56;4.90;99.90
17452;DHT22;8843;48.838;9.324;2023-02-01T04:40:22;4.90;99.90
17452;DHT22;8843;48.838;9.324;2023-02-01T04:42:49;4.90;99.90
17452;DHT22;8843;48.838;9.324;2023-02-01T04:45:17;4.90;99.90
17452;DHT22;8843;48.838;9.324;2023-02-01T04:47:44;4.90;99.90
17452;DHT22;8843;48.838;9.324;2023-02-01T04:50:11;4.90;99.90
17452;DHT22;8843;48.838;9.324;2023-02-01T04:52:38;4.90;99.90
17452;DHT22;8843;48.838;9.324;2023-02-01T04:55:06;4.90;99.90
17452;DHT22;8843;48.838;9.324;2023-02-01T04:57:33;4.90;99.90
17452;DHT22;8843;48.838;9.324;2023-02-01T05:00:00;4.90;99.90
17452;DHT22;8843;48.838;9.324;2023-02-01T05:02:28;4.90;99.90
17452;DHT22;8843;48.838;9.324;2023-02-01T05:04:57;4.90;99.90
17452;DHT22;8843;48.838;9.324;2023-02-01T05:07:24;4.90;99.90
17452;DHT22;8843;48.838;9.324;2023-02-01T05:09:50;4.90;99.90
17452;DHT22;8843;48.838;9.324;2023-02-01T05:12:17;4.90;99.90
17452;DHT22;8843;48.838;9.324;2023-02-01T05:15:01;4.90;99.90
17452;DHT22;8843;48.838;9.324;2023-02-01T05:17:30;4.90;99.90
17452;DHT22;8843;48.838;9.324;2023-02-01T05:19:57;4.90;99.90
17452;DHT22;8843;48.838;9.324;2023-02-01T05:22:23;4.80;99.90
17452;DHT22;8843;48.838;9.324;2023-02-01T05:24:50;4.90;99.90
17452;DHT22;8843;48.838;9.324;2023-02-01T05:27:17;4.90;99.90
17452;DHT22;8843;48.838;9.324;2023-02-01T05:29:44;4.90;99.90
17452;DHT22;8843;48.838;9.324;2023-02-01T05:32:11;4.80;99.90
17452;DHT22;8843;48.838;9.324;2023-02-01T05:34:39;5.40;99.90
17452;DHT22;8843;48.838;9.324;2023-02-01T05:37:06;5.20;99.90
17452;DHT22;8843;48.838;9.324;2023-02-01T05:39:33;5.10;99.90
17452;DHT22;8843;48.838;9.324;2023-02-01T05:42:01;5.00;99.90
17452;DHT22;8843;48.838;9.324;2023-02-01T05:44:27;4.90;99.90
17452;DHT22;8843;48.838;9.324;2023-02-01T05:46:54;4.90;99.90
17452;DHT22;8843;48.838;9.324;2023-02-01T05:49:21;5.50;99.90
17452;DHT22;8843;48.838;9.324;2023-02-01T05:51:50;5.30;99.90
17452;DHT22;8843;48.838;9.324;2023-02-01T05:54:16;5.10;99.90
17452;DHT22;8843;48.838;9.324;2023-02-01T05:56:51;5.00;99.90
17452;DHT22;8843;48.838;9.324;2023-02-01T05:59:25;4.90;99.90
17452;DHT22;8843;48.838;9.324;2023-02-01T06:01:52;4.90;99.90
17452;DHT22;8843;48.838;9.324;2023-02-01T06:04:19;4.90;99.90
17452;DHT22;8843;48.838;9.324;2023-02-01T06:06:46;4.90;99.90
17452;DHT22;8843;48.838;9.324;2023-02-01T06:09:17;4.90;99.90
17452;DHT22;8843;48.838;9.324;2023-02-01T06:11:44;4.90;99.90
17452;DHT22;8843;48.838;9.324;2023-02-01T06:14:11;4.90;99.90
17452;DHT22;8843;48.838;9.324;2023-02-01T06:16:38;4.90;99.90
17452;DHT22;8843;48.838;9.324;2023-02-01T06:19:05;4.90;99.90
17452;DHT22;8843;48.838;9.324;2023-02-01T06:21:32;4.90;99.90
17452;DHT22;8843;48.838;9.324;2023-02-01T06:23:59;4.90;99.90
17452;DHT22;8843;48.838;9.324;2023-02-01T06:26:27;4.80;99.90
17452;DHT22;8843;48.838;9.324;2023-02-01T06:28:55;4.80;99.90
17452;DHT22;8843;48.838;9.324;2023-02-01T06:31:22;4.80;99.90
17452;DHT22;8843;48.838;9.324;2023-02-01T06:33:51;4.90;99.90
17452;DHT22;8843;48.838;9.324;2023-02-01T06:36:19;4.90;99.90
17452;DHT22;8843;48.838;9.324;2023-02-01T06:38:47;5.10;99.90
17452;DHT22;8843;48.838;9.324;2023-02-01T06:41:14;6.50;99.90
17452;DHT22;8843;48.838;9.324;2023-02-01T06:43:43;7.60;99.90
17452;DHT22;8843;48.838;9.324;2023-02-01T06:46:14;6.50;99.90
17452;DHT22;8843;48.838;9.324;2023-02-01T06:48:41;5.90;99.90
17452;DHT22;8843;48.838;9.324;2023-02-01T06:51:19;5.50;99.90
17452;DHT22;8843;48.838;9.324;2023-02-01T06:53:46;5.30;99.90
17452;DHT22;8843;48.838;9.324;2023-02-01T06:56:13;5.20;99.90
17452;DHT22;8843;48.838;9.324;2023-02-01T06:58:40;5.10;99.90
17452;DHT22;8843;48.838;9.324;2023-02-01T07:01:09;5.10;99.90
17452;DHT22;8843;48.838;9.324;2023-02-01T07:03:36;5.10;99.90
17452;DHT22;8843;48.838;9.324;2023-02-01T07:06:04;5.10;99.90
17452;DHT22;8843;48.838;9.324;2023-02-01T07:08:33;5.10;99.90
17452;DHT22;8843;48.838;9.324;2023-02-01T07:11:02;5.10;99.90
17452;DHT22;8843;48.838;9.324;2023-02-01T07:13:29;5.10;99.90
17452;DHT22;8843;48.838;9.324;2023-02-01T07:15:58;5.00;99.90
17452;DHT22;8843;48.838;9.324;2023-02-01T07:18:27;5.10;99.90
17452;DHT22;8843;48.838;9.324;2023-02-01T07:20:55;5.10;99.90
17452;DHT22;8843;48.838;9.324;2023-02-01T07:23:22;5.10;99.90
17452;DHT22;8843;48.838;9.324;2023-02-01T07:25:53;5.20;99.90
17452;DHT22;8843;48.838;9.324;2023-02-01T07:28:20;5.10;99.90
17452;DHT22;8843;48.838;9.324;2023-02-01T07:30:47;5.20;99.90
17452;DHT22;8843;48.838;9.324;2023-02-01T07:33:17;5.10;99.90
17452;DHT22;8843;48.838;9.324;2023-02-01T07:35:46;5.10;99.90
17452;DHT22;8843;48.838;9.324;2023-02-01T07:38:13;5.10;99.90
17452;DHT22;8843;48.838;9.324;2023-02-01T07:40:40;5.10;99.90
17452;DHT22;8843;48.838;9.324;2023-02-01T07:43:07;5.10;99.90
17452;DHT22;8843;48.838;9.324;2023-02-01T07:45:35;5.00;99.90
17452;DHT22;8843;48.838;9.324;2023-02-01T07:48:02;5.00;99.90
17452;DHT22;8843;48.838;9.324;2023-02-01T07:50:29;5.00;99.90
17452;DHT22;8843;48.838;9.324;2023-02-01T07:53:00;5.00;99.90
17452;DHT22;8843;48.838;9.324;2023-02-01T07:55:27;5.10;99.90
17452;DHT22;8843;48.838;9.324;2023-02-01T07:57:57;5.10;99.90
17452;DHT22;8843;48.838;9.324;2023-02-01T08:00:24;5.10;99.90
17452;DHT22;8843;48.838;9.324;2023-02-01T08:03:09;5.10;99.90
17452;DHT22;8843;48.838;9.324;2023-02-01T08:05:36;5.10;99.90
17452;DHT22;8843;48.838;9.324;2023-02-01T08:08:05;5.10;99.90
17452;DHT22;8843;48.838;9.324;2023-02-01T08:10:32;5.00;99.90
17452;DHT22;8843;48.838;9.324;2023-02-01T08:13:01;5.00;99.90
17452;DHT22;8843;48.838;9.324;2023-02-01T08:15:28;5.00;99.90
17452;DHT22;8843;48.838;9.324;2023-02-01T08:17:56;5.00;99.90
17452;DHT22;8843;48.838;9.324;2023-02-01T08:20:24;5.00;99.90
17452;DHT22;8843;48.838;9.324;2023-02-01T08:22:52;5.00;99.90
17452;DHT22;8843;48.838;9.324;2023-02-01T08:25:21;4.90;99.90
17452;DHT22;8843;48.838;9.324;2023-02-01T08:27:48;4.90;99.90
17452;DHT22;8843;48.838;9.324;2023-02-01T08:30:15;4.90;99.90
17452;DHT22;8843;48.838;9.324;2023-02-01T08:32:42;5.00;99.90
17452;DHT22;8843;48.838;9.324;2023-02-01T08:35:09;5.00;99.90
17452;DHT22;8843;48.838;9.324;2023-02-01T08:37:36;4.90;99.90
17452;DHT22;8843;48.838;9.324;2023-02-01T08:40:05;4.90;99.90
17452;DHT22;8843;48.838;9.324;2023-02-01T08:42:33;5.00;99.90
17452;DHT22;8843;48.838;9.324;2023-02-01T08:45:21;5.00;99.90
17452;DHT22;8843;48.838;9.324;2023-02-01T08:47:49;5.00;99.90
17452;DHT22;8843;48.838;9.324;2023-02-01T08:50:17;5.00;99.90
17452;DHT22;8843;48.838;9.324;2023-02-01T08:52:44;5.00;99.90
17452;DHT22;8843;48.838;9.324;2023-02-01T08:55:12;5.00;99.90
17452;DHT22;8843;48.838;9.324;2023-02-01T08:57:41;5.00;99.90
17452;DHT22;8843;48.838;9.324;2023-02-01T09:00:10;5.00;99.90
17452;DHT22;8843;48.838;9.324;2023-02-01T09:02:38;5.00;99.90
17452;DHT22;8843;48.838;9.324;2023-02-01T09:05:06;5.00;99.90
17452;DHT22;8843;48.838;9.324;2023-02-01T09:07:34;5.10;99.90
17452;DHT22;8843;48.838;9.324;2023-02-01T09:10:01;5.00;99.90
17452;DHT22;8843;48.838;9.324;2023-02-01T09:12:28;5.00;99.90
17452;DHT22;8843;48.838;9.324;2023-02-01T09:14:56;5.00;99.90
17452;DHT22;8843;48.838;9.324;2023-02-01T09:17:25;5.00;99.90
17452;DHT22;8843;48.838;9.324;2023-02-01T09:19:52;5.10;99.90
17452;DHT22;8843;48.838;9.324;2023-02-01T09:22:18;5.00;99.90
17452;DHT22;8843;48.838;9.324;2023-02-01T09:24:46;5.00;99.90
17452;DHT22;8843;48.838;9.324;2023-02-01T09:27:12;5.10;99.90
17452;DHT22;8843;48.838;9.324;2023-02-01T09:29:39;5.00;99.90
17452;DHT22;8843;48.838;9.324;2023-02-01T09:32:08;5.00;99.90
17452;DHT22;8843;48.838;9.324;2023-02-01T09:34:35;5.10;99.90
17452;DHT22;8843;48.838;9.324;2023-02-01T09:37:02;5.10;99.90
17452;DHT22;8843;48.838;9.324;2023-02-01T09:39:29;5.10;99.90
17452;DHT22;8843;48.838;9.324;2023-02-01T09:42:02;5.10;99.90
17452;DHT22;8843;48.838;9.324;2023-02-01T09:44:49;5.10;99.90
17452;DHT22;8843;48.838;9.324;2023-02-01T09:47:20;5.10;99.90
17452;DHT22;8843;48.838;9.324;2023-02-01T09:49:52;5.10;99.90
17452;DHT22;8843;48.838;9.324;2023-02-01T09:52:27;5.20;99.90
17452;DHT22;8843;48.838;9.324;2023-02-01T09:54:59;5.10;99.90
17452;DHT22;8843;48.838;9.324;2023-02-01T09:57:36;5.10;99.90
17452;DHT22;8843;48.838;9.324;2023-02-01T10:00:16;5.10;99.90
17452;DHT22;8843;48.838;9.324;2023-02-01T10:02:45;5.10;99.90
17452;DHT22;8843;48.838;9.324;2023-02-01T10:05:15;5.10;99.90
17452;DHT22;8843;48.838;9.324;2023-02-01T10:07:50;5.20;99.90
17452;DHT22;8843;48.838;9.324;2023-02-01T10:10:29;5.20;99.90
17452;DHT22;8843;48.838;9.324;2023-02-01T10:13:05;5.20;99.90
17452;DHT22;8843;48.838;9.324;2023-02-01T10:15:44;5.20;99.90
17452;DHT22;8843;48.838;9.324;2023-02-01T10:18:39;5.20;99.90
17452;DHT22;8843;48.838;9.324;2023-02-01T10:21:17;5.20;99.90
17452;DHT22;8843;48.838;9.324;2023-02-01T10:23:58;5.30;99.90
17452;DHT22;8843;48.838;9.324;2023-02-01T10:26:33;5.30;99.90
17452;DHT22;8843;48.838;9.324;2023-02-01T10:29:03;5.40;99.90
17452;DHT22;8843;48.838;9.324;2023-02-01T10:31:33;5.40;99.90
17452;DHT22;8843;48.838;9.324;2023-02-01T10:34:12;5.40;99.90
17452;DHT22;8843;48.838;9.324;2023-02-01T10:36:42;5.50;99.90
17452;DHT22;8843;48.838;9.324;2023-02-01T10:39:12;5.50;99.90
17452;DHT22;8843;48.838;9.324;2023-02-01T10:41:40;5.50;99.90
17452;DHT22;8843;48.838;9.324;2023-02-01T10:44:13;5.50;99.90
17452;DHT22;8843;48.838;9.324;2023-02-01T10:46:41;5.50;99.90
17452;DHT22;8843;48.838;9.324;2023-02-01T10:49:17;5.50;99.90
17452;DHT22;8843;48.838;9.324;2023-02-01T10:51:48;5.50;99.90
17452;DHT22;8843;48.838;9.324;2023-02-01T10:54:19;5.40;99.90
17452;DHT22;8843;48.838;9.324;2023-02-01T10:56:47;5.50;99.90
17452;DHT22;8843;48.838;9.324;2023-02-01T10:59:16;5.50;99.90
17452;DHT22;8843;48.838;9.324;2023-02-01T11:01:46;5.40;99.90
17452;DHT22;8843;48.838;9.324;2023-02-01T11:04:16;5.40;99.90
17452;DHT22;8843;48.838;9.324;2023-02-01T11:06:45;5.40;99.90
17452;DHT22;8843;48.838;9.324;2023-02-01T11:09:18;5.40;99.90
17452;DHT22;8843;48.838;9.324;2023-02-01T11:11:56;5.40;99.90
17452;DHT22;8843;48.838;9.324;2023-02-01T11:14:33;5.40;99.90
17452;DHT22;8843;48.838;9.324;2023-02-01T11:17:03;5.40;99.90
17452;DHT22;8843;48.838;9.324;2023-02-01T11:19:45;5.40;99.90
17452;DHT22;8843;48.838;9.324;2023-02-01T11:22:13;5.40;99.90
17452;DHT22;8843;48.838;9.324;2023-02-01T11:24:44;5.40;99.90
17452;DHT22;8843;48.838;9.324;2023-02-01T11:27:15;5.40;99.90
17452;DHT22;8843;48.838;9.324;2023-02-01T11:29:44;5.50;99.90
17452;DHT22;8843;48.838;9.324;2023-02-01T11:32:14;5.40;99.90
17452;DHT22;8843;48.838;9.324;2023-02-01T11:34:46;5.40;99.90
17452;DHT22;8843;48.838;9.324;2023-02-01T11:37:18;5.40;99.90
17452;DHT22;8843;48.838;9.324;2023-02-01T11:39:54;5.40;99.90
17452;DHT22;8843;48.838;9.324;2023-02-01T11:42:22;5.40;99.90
17452;DHT22;8843;48.838;9.324;2023-02-01T11:44:49;5.50;99.90
17452;DHT22;8843;48.838;9.324;2023-02-01T11:47:22;5.40;99.90
17452;DHT22;8843;48.838;9.324;2023-02-01T11:49:52;5.50;99.90
17452;DHT22;8843;48.838;9.324;2023-02-01T11:58:22;5.50;99.90
17452;DHT22;8843;48.838;9.324;2023-02-01T12:01:03;5.50;99.90
17452;DHT22;8843;48.838;9.324;2023-02-01T12:06:47;5.50;99.90
17452;DHT22;8843;48.838;9.324;2023-02-01T12:09:35;5.50;99.90
17452;DHT22;8843;48.838;9.324;2023-02-01T12:12:14;5.50;99.90
17452;DHT22;8843;48.838;9.324;2023-02-01T12:14:56;5.50;99.90
17452;DHT22;8843;48.838;9.324;2023-02-01T12:18:00;5.50;99.90
17452;DHT22;8843;48.838;9.324;2023-02-01T12:20:55;5.50;99.90
17452;DHT22;8843;48.838;9.324;2023-02-01T12:23:39;5.50;99.90
17452;DHT22;8843;48.838;9.324;2023-02-01T12:29:18;5.50;99.90
17452;DHT22;8843;48.838;9.324;2023-02-01T12:32:04;5.50;99.90
17452;DHT22;8843;48.838;9.324;2023-02-01T12:34:53;5.50;99.90
17452;DHT22;8843;48.838;9.324;2023-02-01T12:37:31;5.50;99.90
17452;DHT22;8843;48.838;9.324;2023-02-01T12:40:15;5.50;99.90
17452;DHT22;8843;48.838;9.324;2023-02-01T12:42:48;5.50;99.90
17452;DHT22;8843;48.838;9.324;2023-02-01T12:45:24;5.50;99.90
17452;DHT22;8843;48.838;9.324;2023-02-01T12:47:57;5.50;99.90
17452;DHT22;8843;48.838;9.324;2023-02-01T12:50:28;5.50;99.90
17452;DHT22;8843;48.838;9.324;2023-02-01T12:53:06;5.50;99.90
17452;DHT22;8843;48.838;9.324;2023-02-01T12:55:39;5.50;99.90
17452;DHT22;8843;48.838;9.324;2023-02-01T12:58:13;5.50;99.90
17452;DHT22;8843;48.838;9.324;2023-02-01T13:00:48;5.50;99.90
17452;DHT22;8843;48.838;9.324;2023-02-01T13:03:26;5.50;99.90
17452;DHT22;8843;48.838;9.324;2023-02-01T13:05:58;5.50;99.90
17452;DHT22;8843;48.838;9.324;2023-02-01T13:08:35;5.50;99.90
17452;DHT22;8843;48.838;9.324;2023-02-01T13:11:08;5.50;99.90
17452;DHT22;8843;48.838;9.324;2023-02-01T13:13:46;5.50;99.90
17452;DHT22;8843;48.838;9.324;2023-02-01T13:16:16;5.50;99.90
17452;DHT22;8843;48.838;9.324;2023-02-01T13:18:50;5.50;99.90
17452;DHT22;8843;48.838;9.324;2023-02-01T13:21:22;5.50;99.90
17452;DHT22;8843;48.838;9.324;2023-02-01T13:23:50;5.50;99.90
17452;DHT22;8843;48.838;9.324;2023-02-01T13:26:20;5.40;99.90
17452;DHT22;8843;48.838;9.324;2023-02-01T13:28:49;5.50;99.90
17452;DHT22;8843;48.838;9.324;2023-02-01T13:31:40;5.40;99.90
17452;DHT22;8843;48.838;9.324;2023-02-01T13:37:29;5.40;99.90
17452;DHT22;8843;48.838;9.324;2023-02-01T13:40:17;5.40;99.90
17452;DHT22;8843;48.838;9.324;2023-02-01T13:42:51;5.40;99.90
17452;DHT22;8843;48.838;9.324;2023-02-01T13:45:21;5.40;99.90
17452;DHT22;8843;48.838;9.324;2023-02-01T13:47:52;5.40;99.90
17452;DHT22;8843;48.838;9.324;2023-02-01T13:50:23;5.40;99.90
17452;DHT22;8843;48.838;9.324;2023-02-01T13:52:54;5.40;99.90
17452;DHT22;8843;48.838;9.324;2023-02-01T13:55:39;5.40;99.90
17452;DHT22;8843;48.838;9.324;2023-02-01T13:58:19;5.50;99.90
17452;DHT22;8843;48.838;9.324;2023-02-01T14:00:47;5.50;99.90
17452;DHT22;8843;48.838;9.324;2023-02-01T14:03:16;5.50;99.90
17452;DHT22;8843;48.838;9.324;2023-02-01T14:09:17;5.50;99.90
17452;DHT22;8843;48.838;9.324;2023-02-01T14:11:47;5.50;99.90
17452;DHT22;8843;48.838;9.324;2023-02-01T14:14:43;5.50;99.90
17452;DHT22;8843;48.838;9.324;2023-02-01T14:17:39;5.50;99.90
17452;DHT22;8843;48.838;9.324;2023-02-01T14:23:16;5.50;99.90
17452;DHT22;8843;48.838;9.324;2023-02-01T14:25:44;5.50;99.90
17452;DHT22;8843;48.838;9.324;2023-02-01T14:28:19;5.50;99.90
17452;DHT22;8843;48.838;9.324;2023-02-01T14:30:49;5.50;99.90
17452;DHT22;8843;48.838;9.324;2023-02-01T14:33:22;5.50;99.90
17452;DHT22;8843;48.838;9.324;2023-02-01T14:36:04;5.50;99.90
17452;DHT22;8843;48.838;9.324;2023-02-01T14:38:33;5.50;99.90
17452;DHT22;8843;48.838;9.324;2023-02-01T14:41:28;5.40;99.90
17452;DHT22;8843;48.838;9.324;2023-02-01T14:44:28;5.50;99.90
17452;DHT22;8843;48.838;9.324;2023-02-01T14:47:06;5.50;99.90
17452;DHT22;8843;48.838;9.324;2023-02-01T14:49:37;5.50;99.90
17452;DHT22;8843;48.838;9.324;2023-02-01T14:52:09;5.50;99.90
17452;DHT22;8843;48.838;9.324;2023-02-01T14:54:37;5.50;99.90
17452;DHT22;8843;48.838;9.324;2023-02-01T14:57:12;5.50;99.90
17452;DHT22;8843;48.838;9.324;2023-02-01T14:59:40;5.50;99.90
17452;DHT22;8843;48.838;9.324;2023-02-01T15:02:18;5.50;99.90
17452;DHT22;8843;48.838;9.324;2023-02-01T15:04:47;6.10;99.90
17452;DHT22;8843;48.838;9.324;2023-02-01T15:07:21;5.90;99.40
17452;DHT22;8843;48.838;9.324;2023-02-01T15:09:50;5.80;99.90
17452;DHT22;8843;48.838;9.324;2023-02-01T15:12:23;5.70;99.70
17452;DHT22;8843;48.838;9.324;2023-02-01T15:15:11;5.60;99.90
17452;DHT22;8843;48.838;9.324;2023-02-01T15:17:39;5.60;99.90
17452;DHT22;8843;48.838;9.324;2023-02-01T15:20:14;5.60;99.90
17452;DHT22;8843;48.838;9.324;2023-02-01T15:22:42;5.60;99.90
17452;DHT22;8843;48.838;9.324;2023-02-01T15:25:19;5.50;99.90
17452;DHT22;8843;48.838;9.324;2023-02-01T15:27:46;5.50;99.80
17452;DHT22;8843;48.838;9.324;2023-02-01T15:30:18;5.50;99.80
17452;DHT22;8843;48.838;9.324;2023-02-01T15:32:48;5.50;99.90
17452;DHT22;8843;48.838;9.324;2023-02-01T15:35:39;5.50;99.90
17452;DHT22;8843;48.838;9.324;2023-02-01T15:38:41;5.50;99.70
17452;DHT22;8843;48.838;9.324;2023-02-01T15:41:12;5.50;99.90
17452;DHT22;8843;48.838;9.324;2023-02-01T15:43:42;5.50;99.50
17452;DHT22;8843;48.838;9.324;2023-02-01T15:46:13;5.50;99.70
17452;DHT22;8843;48.838;9.324;2023-02-01T15:48:45;5.50;99.90
17452;DHT22;8843;48.838;9.324;2023-02-01T15:51:17;5.50;99.90
17452;DHT22;8843;48.838;9.324;2023-02-01T15:53:47;5.60;99.60
17452;DHT22;8843;48.838;9.324;2023-02-01T15:56:16;5.50;99.70
17452;DHT22;8843;48.838;9.324;2023-02-01T15:58:51;5.50;99.90
17452;DHT22;8843;48.838;9.324;2023-02-01T16:01:19;5.50;99.40
17452;DHT22;8843;48.838;9.324;2023-02-01T16:03:48;5.50;99.50
17452;DHT22;8843;48.838;9.324;2023-02-01T16:06:28;5.50;99.20
17452;DHT22;8843;48.838;9.324;2023-02-01T16:09:00;5.50;99.30
17452;DHT22;8843;48.838;9.324;2023-02-01T16:11:29;5.50;99.30
17452;DHT22;8843;48.838;9.324;2023-02-01T16:13:57;5.50;99.20
17452;DHT22;8843;48.838;9.324;2023-02-01T16:16:24;5.50;99.80
17452;DHT22;8843;48.838;9.324;2023-02-01T16:18:52;5.50;99.90
17452;DHT22;8843;48.838;9.324;2023-02-01T16:21:19;5.50;99.90
17452;DHT22;8843;48.838;9.324;2023-02-01T16:23:50;5.50;99.60
17452;DHT22;8843;48.838;9.324;2023-02-01T16:26:18;5.50;99.40
17452;DHT22;8843;48.838;9.324;2023-02-01T16:28:45;5.50;99.10
17452;DHT22;8843;48.838;9.324;2023-02-01T16:31:13;5.50;99.70
17452;DHT22;8843;48.838;9.324;2023-02-01T16:33:48;5.50;99.10
17452;DHT22;8843;48.838;9.324;2023-02-01T16:36:17;5.50;99.10
17452;DHT22;8843;48.838;9.324;2023-02-01T16:38:45;5.50;99.00
17452;DHT22;8843;48.838;9.324;2023-02-01T16:41:20;5.50;99.20
17452;DHT22;8843;48.838;9.324;2023-02-01T16:43:50;5.50;99.70
17452;DHT22;8843;48.838;9.324;2023-02-01T16:46:18;5.50;98.60
17452;DHT22;8843;48.838;9.324;2023-02-01T16:48:51;5.50;98.50
17452;DHT22;8843;48.838;9.324;2023-02-01T16:51:20;5.50;99.00
17452;DHT22;8843;48.838;9.324;2023-02-01T16:53:47;5.50;99.80
17452;DHT22;8843;48.838;9.324;2023-02-01T16:56:16;5.50;98.50
17452;DHT22;8843;48.838;9.324;2023-02-01T16:58:44;5.50;98.90